sensor_id;sensor_type;location;lat;lon;timestamp;P1;durP1;ratioP1;P2;durP2;ratioP2
74042;SDS011;62384;53.600;10.040;2022-11-20T00:00:10;6.95;;;2.72;;
74042;SDS011;62384;53.600;10.040;2022-11-20T00:02:41;5.90;;;2.47;;
74042;SDS011;62384;53.600;10.040;2022-11-20T00:05:06;4.35;;;2.35;;
74042;SDS011;62384;53.600;10.040;2022-11-20T00:07:34;3.60;;;1.95;;
74042;SDS011;62384;53.600;10.040;2022-11-20T00:10:01;3.55;;;2.40;;
74042;SDS011;62384;53.600;10.040;2022-11-20T00:12:41;8.10;;;2.33;;
74042;SDS011;62384;53.600;10.040;2022-11-20T00:15:07;4.43;;;2.00;;
74042;SDS011;62384;53.600;10.040;2022-11-20T00:17:33;6.18;;;2.55;;
74042;SDS011;62384;53.600;10.040;2022-11-20T00:19:58;10.52;;;2.20;;
74042;SDS011;62384;53.600;10.040;2022-11-20T00:22:24;6.53;;;2.40;;
74042;SDS011;62384;53.600;10.040;2022-11-20T00:24:49;4.22;;;2.08;;
74042;SDS011;62384;53.600;10.040;2022-11-20T00:27:17;5.30;;;2.33;;
74042;SDS011;62384;53.600;10.040;2022-11-20T00:29:42;4.10;;;2.17;;
74042;SDS011;62384;53.600;10.040;2022-11-20T00:32:07;4.32;;;2.28;;
74042;SDS011;62384;53.600;10.040;2022-11-20T00:34:33;4.63;;;2.25;;
74042;SDS011;62384;53.600;10.040;2022-11-20T00:37:10;4.40;;;2.30;;
74042;SDS011;62384;53.600;10.040;2022-11-20T00:39:35;7.28;;;2.55;;
74042;SDS011;62384;53.600;10.040;2022-11-20T00:42:01;7.05;;;2.10;;
74042;SDS011;62384;53.600;10.040;2022-11-20T00:44:26;4.97;;;2.70;;
74042;SDS011;62384;53.600;10.040;2022-11-20T00:46:54;2.95;;;2.03;;
74042;SDS011;62384;53.600;10.040;2022-11-20T00:49:20;5.15;;;2.38;;
74042;SDS011;62384;53.600;10.040;2022-11-20T00:51:45;5.10;;;2.60;;
74042;SDS011;62384;53.600;10.040;2022-11-20T00:54:13;3.88;;;2.28;;
74042;SDS011;62384;53.600;10.040;2022-11-20T00:56:38;7.22;;;2.83;;
74042;SDS011;62384;53.600;10.040;2022-11-20T00:59:04;5.47;;;2.42;;
74042;SDS011;62384;53.600;10.040;2022-11-20T01:01:30;4.55;;;2.35;;
74042;SDS011;62384;53.600;10.040;2022-11-20T01:03:56;4.50;;;2.08;;
74042;SDS011;62384;53.600;10.040;2022-11-20T01:06:27;6.50;;;2.63;;
74042;SDS011;62384;53.600;10.040;2022-11-20T01:09:12;6.10;;;2.13;;
74042;SDS011;62384;53.600;10.040;2022-11-20T01:11:44;4.15;;;2.35;;
74042;SDS011;62384;53.600;10.040;2022-11-20T01:16:38;5.05;;;2.63;;
74042;SDS011;62384;53.600;10.040;2022-11-20T01:19:07;3.28;;;2.13;;
74042;SDS011;62384;53.600;10.040;2022-11-20T01:21:36;2.88;;;1.85;;
74042;SDS011;62384;53.600;10.040;2022-11-20T01:24:04;5.90;;;2.60;;
74042;SDS011;62384;53.600;10.040;2022-11-20T01:26:33;5.32;;;2.33;;
74042;SDS011;62384;53.600;10.040;2022-11-20T01:29:00;6.35;;;2.30;;
74042;SDS011;62384;53.600;10.040;2022-11-20T01:31:27;5.40;;;2.55;;
74042;SDS011;62384;53.600;10.040;2022-11-20T01:33:56;5.47;;;2.45;;
74042;SDS011;62384;53.600;10.040;2022-11-20T01:36:23;5.75;;;2.78;;
74042;SDS011;62384;53.600;10.040;2022-11-20T01:38:54;3.58;;;2.28;;
74042;SDS011;62384;53.600;10.040;2022-11-20T01:44:20;3.03;;;1.85;;
74042;SDS011;62384;53.600;10.040;2022-11-20T01:46:57;5.07;;;2.13;;
74042;SDS011;62384;53.600;10.040;2022-11-20T01:49:34;6.03;;;2.63;;
74042;SDS011;62384;53.600;10.040;2022-11-20T01:52:21;4.30;;;2.25;;
74042;SDS011;62384;53.600;10.040;2022-11-20T01:55:09;7.78;;;2.42;;
74042;SDS011;62384;53.600;10.040;2022-11-20T01:57:38;6.30;;;3.00;;
74042;SDS011;62384;53.600;10.040;2022-11-20T02:00:08;5.80;;;2.50;;
74042;SDS011;62384;53.600;10.040;2022-11-20T02:02:36;4.85;;;2.58;;
74042;SDS011;62384;53.600;10.040;2022-11-20T02:05:09;8.57;;;2.40;;
74042;SDS011;62384;53.600;10.040;2022-11-20T02:07:43;6.07;;;2.47;;
74042;SDS011;62384;53.600;10.040;2022-11-20T02:10:09;5.53;;;2.47;;
74042;SDS011;62384;53.600;10.040;2022-11-20T02:12:41;4.10;;;2.20;;
74042;SDS011;62384;53.600;10.040;2022-11-20T02:15:28;4.88;;;2.97;;
74042;SDS011;62384;53.600;10.040;2022-11-20T02:17:53;8.50;;;2.92;;
74042;SDS011;62384;53.600;10.040;2022-11-20T02:20:21;7.20;;;3.15;;
74042;SDS011;62384;53.600;10.040;2022-11-20T02:23:00;6.95;;;3.45;;
74042;SDS011;62384;53.600;10.040;2022-11-20T02:25:29;4.22;;;2.38;;
74042;SDS011;62384;53.600;10.040;2022-11-20T02:27:57;4.88;;;2.38;;
74042;SDS011;62384;53.600;10.040;2022-11-20T02:30:22;6.90;;;3.15;;
74042;SDS011;62384;53.600;10.040;2022-11-20T02:32:52;4.70;;;2.47;;
74042;SDS011;62384;53.600;10.040;2022-11-20T02:37:47;5.22;;;2.40;;
74042;SDS011;62384;53.600;10.040;2022-11-20T02:40:18;7.10;;;2.80;;
74042;SDS011;62384;53.600;10.040;2022-11-20T02:42:44;3.88;;;2.65;;
74042;SDS011;62384;53.600;10.040;2022-11-20T02:45:15;5.35;;;2.83;;
74042;SDS011;62384;53.600;10.040;2022-11-20T02:47:41;3.20;;;1.95;;
74042;SDS011;62384;53.600;10.040;2022-11-20T02:50:06;6.45;;;2.45;;
74042;SDS011;62384;53.600;10.040;2022-11-20T02:52:31;4.18;;;2.22;;
74042;SDS011;62384;53.600;10.040;2022-11-20T02:55:00;2.83;;;1.83;;
74042;SDS011;62384;53.600;10.040;2022-11-20T02:57:25;7.28;;;2.38;;
74042;SDS011;62384;53.600;10.040;2022-11-20T02:59:51;5.47;;;2.17;;
74042;SDS011;62384;53.600;10.040;2022-11-20T03:02:16;4.88;;;2.60;;
74042;SDS011;62384;53.600;10.040;2022-11-20T03:04:41;4.72;;;2.53;;
74042;SDS011;62384;53.600;10.040;2022-11-20T03:07:07;8.48;;;2.50;;
74042;SDS011;62384;53.600;10.040;2022-11-20T03:09:43;5.70;;;2.60;;
74042;SDS011;62384;53.600;10.040;2022-11-20T03:12:08;6.93;;;2.88;;
74042;SDS011;62384;53.600;10.040;2022-11-20T03:14:36;5.63;;;2.83;;
74042;SDS011;62384;53.600;10.040;2022-11-20T03:17:05;4.05;;;2.92;;
74042;SDS011;62384;53.600;10.040;2022-11-20T03:19:56;5.95;;;2.85;;
74042;SDS011;62384;53.600;10.040;2022-11-20T03:22:22;5.40;;;2.00;;
74042;SDS011;62384;53.600;10.040;2022-11-20T03:24:49;6.60;;;2.47;;
74042;SDS011;62384;53.600;10.040;2022-11-20T03:27:14;3.97;;;2.25;;
74042;SDS011;62384;53.600;10.040;2022-11-20T03:29:42;7.75;;;2.58;;
74042;SDS011;62384;53.600;10.040;2022-11-20T03:32:11;6.22;;;2.75;;
74042;SDS011;62384;53.600;10.040;2022-11-20T03:34:36;6.65;;;2.72;;
74042;SDS011;62384;53.600;10.040;2022-11-20T03:37:01;5.75;;;2.60;;
74042;SDS011;62384;53.600;10.040;2022-11-20T03:39:27;4.22;;;2.05;;
74042;SDS011;62384;53.600;10.040;2022-11-20T03:41:52;3.13;;;2.17;;
74042;SDS011;62384;53.600;10.040;2022-11-20T03:44:23;6.72;;;2.78;;
74042;SDS011;62384;53.600;10.040;2022-11-20T03:46:52;7.65;;;2.00;;
74042;SDS011;62384;53.600;10.040;2022-11-20T03:52:07;4.00;;;2.15;;
74042;SDS011;62384;53.600;10.040;2022-11-20T03:54:32;7.22;;;2.92;;
74042;SDS011;62384;53.600;10.040;2022-11-20T03:57:01;4.25;;;2.22;;
74042;SDS011;62384;53.600;10.040;2022-11-20T03:59:26;9.20;;;2.20;;
74042;SDS011;62384;53.600;10.040;2022-11-20T04:01:57;6.95;;;2.65;;
74042;SDS011;62384;53.600;10.040;2022-11-20T04:04:22;3.88;;;2.30;;
74042;SDS011;62384;53.600;10.040;2022-11-20T04:06:48;4.20;;;2.60;;
74042;SDS011;62384;53.600;10.040;2022-11-20T04:09:13;2.65;;;2.03;;
74042;SDS011;62384;53.600;10.040;2022-11-20T04:11:41;4.60;;;2.50;;
74042;SDS011;62384;53.600;10.040;2022-11-20T04:14:12;5.10;;;2.13;;
74042;SDS011;62384;53.600;10.040;2022-11-20T04:16:43;6.32;;;2.38;;
74042;SDS011;62384;53.600;10.040;2022-11-20T04:19:10;5.13;;;2.42;;
74042;SDS011;62384;53.600;10.040;2022-11-20T04:21:37;8.20;;;2.63;;
74042;SDS011;62384;53.600;10.040;2022-11-20T04:24:09;4.75;;;2.33;;
74042;SDS011;62384;53.600;10.040;2022-11-20T04:26:36;8.32;;;2.30;;
74042;SDS011;62384;53.600;10.040;2022-11-20T04:29:01;6.57;;;2.22;;
74042;SDS011;62384;53.600;10.040;2022-11-20T04:31:28;4.93;;;2.30;;
74042;SDS011;62384;53.600;10.040;2022-11-20T04:33:59;7.28;;;2.55;;
74042;SDS011;62384;53.600;10.040;2022-11-20T04:36:28;4.80;;;2.75;;
74042;SDS011;62384;53.600;10.040;2022-11-20T04:39:01;3.92;;;2.50;;
74042;SDS011;62384;53.600;10.040;2022-11-20T04:41:28;7.65;;;2.55;;
74042;SDS011;62384;53.600;10.040;2022-11-20T04:43:58;8.15;;;2.90;;
74042;SDS011;62384;53.600;10.040;2022-11-20T04:46:40;5.68;;;3.15;;
74042;SDS011;62384;53.600;10.040;2022-11-20T04:49:11;5.95;;;2.65;;
74042;SDS011;62384;53.600;10.040;2022-11-20T04:51:36;5.50;;;2.63;;
74042;SDS011;62384;53.600;10.040;2022-11-20T04:54:02;5.07;;;2.50;;
74042;SDS011;62384;53.600;10.040;2022-11-20T04:56:28;4.63;;;2.67;;
74042;SDS011;62384;53.600;10.040;2022-11-20T04:58:53;4.55;;;2.90;;
74042;SDS011;62384;53.600;10.040;2022-11-20T05:01:22;4.05;;;2.63;;
74042;SDS011;62384;53.600;10.040;2022-11-20T05:03:49;4.47;;;2.53;;
74042;SDS011;62384;53.600;10.040;2022-11-20T05:06:15;9.05;;;2.60;;
74042;SDS011;62384;53.600;10.040;2022-11-20T05:08:46;4.70;;;2.58;;
74042;SDS011;62384;53.600;10.040;2022-11-20T05:11:12;8.30;;;3.20;;
74042;SDS011;62384;53.600;10.040;2022-11-20T05:13:41;3.28;;;2.60;;
74042;SDS011;62384;53.600;10.040;2022-11-20T05:16:14;5.20;;;3.10;;
74042;SDS011;62384;53.600;10.040;2022-11-20T05:18:47;5.18;;;3.25;;
74042;SDS011;62384;53.600;10.040;2022-11-20T05:21:12;4.72;;;2.80;;
74042;SDS011;62384;53.600;10.040;2022-11-20T05:23:38;8.35;;;2.83;;
74042;SDS011;62384;53.600;10.040;2022-11-20T05:26:04;4.18;;;2.55;;
74042;SDS011;62384;53.600;10.040;2022-11-20T05:28:40;4.00;;;2.50;;
74042;SDS011;62384;53.600;10.040;2022-11-20T05:31:06;5.22;;;2.80;;
74042;SDS011;62384;53.600;10.040;2022-11-20T05:33:33;4.38;;;3.08;;
74042;SDS011;62384;53.600;10.040;2022-11-20T05:36:18;7.53;;;3.22;;
74042;SDS011;62384;53.600;10.040;2022-11-20T05:38:44;5.93;;;3.15;;
74042;SDS011;62384;53.600;10.040;2022-11-20T05:41:10;5.75;;;2.83;;
74042;SDS011;62384;53.600;10.040;2022-11-20T05:43:43;5.05;;;2.95;;
74042;SDS011;62384;53.600;10.040;2022-11-20T05:46:11;6.75;;;3.10;;
74042;SDS011;62384;53.600;10.040;2022-11-20T05:48:38;6.07;;;3.30;;
74042;SDS011;62384;53.600;10.040;2022-11-20T05:51:05;9.55;;;3.70;;
74042;SDS011;62384;53.600;10.040;2022-11-20T05:53:32;6.13;;;3.58;;
74042;SDS011;62384;53.600;10.040;2022-11-20T05:56:09;4.50;;;2.95;;
74042;SDS011;62384;53.600;10.040;2022-11-20T05:58:36;6.70;;;2.47;;
74042;SDS011;62384;53.600;10.040;2022-11-20T06:03:48;5.60;;;3.28;;
74042;SDS011;62384;53.600;10.040;2022-11-20T06:06:16;4.70;;;3.35;;
74042;SDS011;62384;53.600;10.040;2022-11-20T06:08:42;6.03;;;2.75;;
74042;SDS011;62384;53.600;10.040;2022-11-20T06:11:12;6.53;;;3.28;;
74042;SDS011;62384;53.600;10.040;2022-11-20T06:13:38;6.93;;;2.85;;
74042;SDS011;62384;53.600;10.040;2022-11-20T06:16:04;6.72;;;3.22;;
74042;SDS011;62384;53.600;10.040;2022-11-20T06:18:30;8.48;;;3.50;;
74042;SDS011;62384;53.600;10.040;2022-11-20T06:21:03;5.03;;;3.38;;
74042;SDS011;62384;53.600;10.040;2022-11-20T06:23:42;6.38;;;3.45;;
74042;SDS011;62384;53.600;10.040;2022-11-20T06:26:08;5.03;;;3.35;;
74042;SDS011;62384;53.600;10.040;2022-11-20T06:28:40;5.25;;;3.30;;
74042;SDS011;62384;53.600;10.040;2022-11-20T06:31:13;7.45;;;4.25;;
74042;SDS011;62384;53.600;10.040;2022-11-20T06:33:40;5.97;;;3.80;;
74042;SDS011;62384;53.600;10.040;2022-11-20T06:36:06;6.55;;;3.83;;
74042;SDS011;62384;53.600;10.040;2022-11-20T06:38:34;7.75;;;4.10;;
74042;SDS011;62384;53.600;10.040;2022-11-20T06:40:59;8.85;;;4.60;;
74042;SDS011;62384;53.600;10.040;2022-11-20T06:43:25;9.00;;;4.60;;
74042;SDS011;62384;53.600;10.040;2022-11-20T06:45:58;7.93;;;4.43;;
74042;SDS011;62384;53.600;10.040;2022-11-20T06:48:24;7.97;;;5.30;;
74042;SDS011;62384;53.600;10.040;2022-11-20T06:50:51;10.20;;;5.10;;
74042;SDS011;62384;53.600;10.040;2022-11-20T06:53:19;8.68;;;4.03;;
74042;SDS011;62384;53.600;10.040;2022-11-20T06:55:45;9.50;;;4.85;;
74042;SDS011;62384;53.600;10.040;2022-11-20T06:58:17;9.63;;;4.68;;
74042;SDS011;62384;53.600;10.040;2022-11-20T07:00:48;9.35;;;5.15;;
74042;SDS011;62384;53.600;10.040;2022-11-20T07:03:14;10.65;;;4.97;;
74042;SDS011;62384;53.600;10.040;2022-11-20T07:05:45;6.03;;;3.75;;
74042;SDS011;62384;53.600;10.040;2022-11-20T07:10:37;8.65;;;4.30;;
74042;SDS011;62384;53.600;10.040;2022-11-20T07:13:02;8.50;;;3.92;;
74042;SDS011;62384;53.600;10.040;2022-11-20T07:15:28;7.30;;;4.03;;
74042;SDS011;62384;53.600;10.040;2022-11-20T07:17:54;7.13;;;3.88;;
74042;SDS011;62384;53.600;10.040;2022-11-20T07:20:19;10.68;;;4.43;;
74042;SDS011;62384;53.600;10.040;2022-11-20T07:22:44;7.88;;;3.55;;
74042;SDS011;62384;53.600;10.040;2022-11-20T07:25:10;7.03;;;3.50;;
74042;SDS011;62384;53.600;10.040;2022-11-20T07:27:35;7.32;;;4.03;;
74042;SDS011;62384;53.600;10.040;2022-11-20T07:30:01;7.05;;;4.22;;
74042;SDS011;62384;53.600;10.040;2022-11-20T07:32:27;7.60;;;3.72;;
74042;SDS011;62384;53.600;10.040;2022-11-20T07:34:52;11.52;;;4.03;;
74042;SDS011;62384;53.600;10.040;2022-11-20T07:37:20;8.70;;;4.07;;
74042;SDS011;62384;53.600;10.040;2022-11-20T07:39:49;7.85;;;4.10;;
74042;SDS011;62384;53.600;10.040;2022-11-20T07:42:14;7.22;;;4.10;;
74042;SDS011;62384;53.600;10.040;2022-11-20T07:44:40;6.55;;;3.50;;
74042;SDS011;62384;53.600;10.040;2022-11-20T07:47:05;5.75;;;3.33;;
74042;SDS011;62384;53.600;10.040;2022-11-20T07:49:31;7.07;;;3.40;;
74042;SDS011;62384;53.600;10.040;2022-11-20T07:51:56;3.72;;;2.88;;
74042;SDS011;62384;53.600;10.040;2022-11-20T07:54:23;6.40;;;3.13;;
74042;SDS011;62384;53.600;10.040;2022-11-20T07:56:50;7.18;;;3.35;;
74042;SDS011;62384;53.600;10.040;2022-11-20T07:59:17;6.85;;;3.10;;
74042;SDS011;62384;53.600;10.040;2022-11-20T08:01:43;8.05;;;3.17;;
74042;SDS011;62384;53.600;10.040;2022-11-20T08:04:08;7.68;;;3.33;;
74042;SDS011;62384;53.600;10.040;2022-11-20T08:06:34;6.78;;;3.10;;
74042;SDS011;62384;53.600;10.040;2022-11-20T08:09:00;8.15;;;3.20;;
74042;SDS011;62384;53.600;10.040;2022-11-20T08:11:26;5.85;;;2.80;;
74042;SDS011;62384;53.600;10.040;2022-11-20T08:14:10;11.15;;;3.45;;
74042;SDS011;62384;53.600;10.040;2022-11-20T08:16:39;4.40;;;2.65;;
74042;SDS011;62384;53.600;10.040;2022-11-20T08:19:05;6.63;;;3.05;;
74042;SDS011;62384;53.600;10.040;2022-11-20T08:21:30;5.68;;;2.97;;
74042;SDS011;62384;53.600;10.040;2022-11-20T08:23:56;7.07;;;3.10;;
74042;SDS011;62384;53.600;10.040;2022-11-20T08:26:22;3.65;;;2.38;;
74042;SDS011;62384;53.600;10.040;2022-11-20T08:28:48;5.50;;;2.53;;
74042;SDS011;62384;53.600;10.040;2022-11-20T08:31:14;4.78;;;2.60;;
74042;SDS011;62384;53.600;10.040;2022-11-20T08:33:40;10.20;;;2.70;;
74042;SDS011;62384;53.600;10.040;2022-11-20T08:36:05;4.65;;;2.63;;
74042;SDS011;62384;53.600;10.040;2022-11-20T08:38:31;5.22;;;2.28;;
74042;SDS011;62384;53.600;10.040;2022-11-20T08:41:00;3.28;;;2.45;;
74042;SDS011;62384;53.600;10.040;2022-11-20T08:43:45;4.97;;;2.50;;
74042;SDS011;62384;53.600;10.040;2022-11-20T08:46:11;4.13;;;2.55;;
74042;SDS011;62384;53.600;10.040;2022-11-20T08:48:37;5.85;;;2.58;;
74042;SDS011;62384;53.600;10.040;2022-11-20T08:51:02;4.53;;;2.35;;
74042;SDS011;62384;53.600;10.040;2022-11-20T08:53:28;7.32;;;2.20;;
74042;SDS011;62384;53.600;10.040;2022-11-20T08:55:53;2.72;;;1.98;;
74042;SDS011;62384;53.600;10.040;2022-11-20T08:58:19;4.10;;;2.33;;
74042;SDS011;62384;53.600;10.040;2022-11-20T09:00:44;3.65;;;2.17;;
74042;SDS011;62384;53.600;10.040;2022-11-20T09:03:10;5.65;;;2.95;;
74042;SDS011;62384;53.600;10.040;2022-11-20T09:05:35;6.55;;;2.22;;
74042;SDS011;62384;53.600;10.040;2022-11-20T09:08:00;5.70;;;2.58;;
74042;SDS011;62384;53.600;10.040;2022-11-20T09:10:26;6.18;;;2.92;;
74042;SDS011;62384;53.600;10.040;2022-11-20T09:12:52;4.70;;;2.20;;
74042;SDS011;62384;53.600;10.040;2022-11-20T09:15:18;5.68;;;2.53;;
74042;SDS011;62384;53.600;10.040;2022-11-20T09:17:51;4.03;;;2.50;;
74042;SDS011;62384;53.600;10.040;2022-11-20T09:20:21;3.35;;;1.73;;
74042;SDS011;62384;53.600;10.040;2022-11-20T09:22:46;5.68;;;2.80;;
74042;SDS011;62384;53.600;10.040;2022-11-20T09:25:12;5.70;;;2.03;;
74042;SDS011;62384;53.600;10.040;2022-11-20T09:27:37;6.30;;;2.70;;
74042;SDS011;62384;53.600;10.040;2022-11-20T09:30:03;4.82;;;2.80;;
74042;SDS011;62384;53.600;10.040;2022-11-20T09:32:29;4.03;;;2.70;;
74042;SDS011;62384;53.600;10.040;2022-11-20T09:34:54;5.43;;;2.10;;
74042;SDS011;62384;53.600;10.040;2022-11-20T09:37:20;4.22;;;2.25;;
74042;SDS011;62384;53.600;10.040;2022-11-20T09:39:45;5.05;;;2.88;;
74042;SDS011;62384;53.600;10.040;2022-11-20T09:44:51;7.57;;;2.50;;
74042;SDS011;62384;53.600;10.040;2022-11-20T09:55:36;4.88;;;2.55;;
74042;SDS011;62384;53.600;10.040;2022-11-20T09:58:06;5.72;;;3.00;;
74042;SDS011;62384;53.600;10.040;2022-11-20T10:00:37;4.50;;;2.28;;
74042;SDS011;62384;53.600;10.040;2022-11-20T10:03:06;4.32;;;2.40;;
74042;SDS011;62384;53.600;10.040;2022-11-20T10:05:40;8.23;;;2.85;;
74042;SDS011;62384;53.600;10.040;2022-11-20T10:08:17;4.82;;;2.50;;
74042;SDS011;62384;53.600;10.040;2022-11-20T10:13:45;5.32;;;2.60;;
74042;SDS011;62384;53.600;10.040;2022-11-20T10:30:09;4.90;;;2.53;;
74042;SDS011;62384;53.600;10.040;2022-11-20T10:32:41;5.72;;;2.78;;
74042;SDS011;62384;53.600;10.040;2022-11-20T10:37:42;6.25;;;2.75;;
74042;SDS011;62384;53.600;10.040;2022-11-20T10:40:26;4.80;;;2.42;;
74042;SDS011;62384;53.600;10.040;2022-11-20T10:43:00;5.00;;;2.42;;
74042;SDS011;62384;53.600;10.040;2022-11-20T10:48:15;4.20;;;2.30;;
74042;SDS011;62384;53.600;10.040;2022-11-20T10:54:24;3.28;;;1.88;;
74042;SDS011;62384;53.600;10.040;2022-11-20T10:56:34;2.80;;;1.80;;
74042;SDS011;62384;53.600;10.040;2022-11-20T11:01:48;4.07;;;2.20;;
74042;SDS011;62384;53.600;10.040;2022-11-20T11:07:14;3.50;;;2.17;;
74042;SDS011;62384;53.600;10.040;2022-11-20T11:09:43;5.57;;;2.38;;
74042;SDS011;62384;53.600;10.040;2022-11-20T11:12:13;5.28;;;2.70;;
74042;SDS011;62384;53.600;10.040;2022-11-20T11:14:42;4.07;;;2.35;;
74042;SDS011;62384;53.600;10.040;2022-11-20T11:20:06;2.77;;;1.67;;
74042;SDS011;62384;53.600;10.040;2022-11-20T11:22:49;3.63;;;2.10;;
74042;SDS011;62384;53.600;10.040;2022-11-20T11:25:24;3.88;;;2.15;;
74042;SDS011;62384;53.600;10.040;2022-11-20T11:27:53;6.55;;;1.95;;
74042;SDS011;62384;53.600;10.040;2022-11-20T11:30:21;2.63;;;2.03;;
74042;SDS011;62384;53.600;10.040;2022-11-20T11:32:47;3.78;;;2.15;;
74042;SDS011;62384;53.600;10.040;2022-11-20T11:35:24;3.15;;;2.00;;
74042;SDS011;62384;53.600;10.040;2022-11-20T11:37:51;2.05;;;1.63;;
74042;SDS011;62384;53.600;10.040;2022-11-20T11:40:19;3.20;;;2.08;;
74042;SDS011;62384;53.600;10.040;2022-11-20T11:42:52;2.90;;;2.08;;
74042;SDS011;62384;53.600;10.040;2022-11-20T11:45:21;3.78;;;1.85;;
74042;SDS011;62384;53.600;10.040;2022-11-20T11:47:50;4.13;;;2.08;;
74042;SDS011;62384;53.600;10.040;2022-11-20T11:50:21;2.03;;;1.50;;
74042;SDS011;62384;53.600;10.040;2022-11-20T11:53:08;1.73;;;1.40;;
74042;SDS011;62384;53.600;10.040;2022-11-20T11:55:42;5.90;;;1.92;;
74042;SDS011;62384;53.600;10.040;2022-11-20T11:58:20;2.55;;;1.58;;
74042;SDS011;62384;53.600;10.040;2022-11-20T12:00:59;4.07;;;2.00;;
74042;SDS011;62384;53.600;10.040;2022-11-20T12:03:36;3.13;;;1.70;;
74042;SDS011;62384;53.600;10.040;2022-11-20T12:06:16;4.53;;;1.60;;
74042;SDS011;62384;53.600;10.040;2022-11-20T12:08:53;4.38;;;1.83;;
74042;SDS011;62384;53.600;10.040;2022-11-20T12:11:24;4.50;;;1.90;;
74042;SDS011;62384;53.600;10.040;2022-11-20T12:16:34;3.15;;;1.60;;
74042;SDS011;62384;53.600;10.040;2022-11-20T12:19:02;2.75;;;1.95;;
74042;SDS011;62384;53.600;10.040;2022-11-20T12:21:51;3.45;;;1.90;;
74042;SDS011;62384;53.600;10.040;2022-11-20T12:36:16;2.42;;;1.55;;
74042;SDS011;62384;53.600;10.040;2022-11-20T12:45:00;4.05;;;1.80;;
74042;SDS011;62384;53.600;10.040;2022-11-20T12:53:08;3.63;;;1.90;;
74042;SDS011;62384;53.600;10.040;2022-11-20T12:58:39;3.90;;;1.60;;
74042;SDS011;62384;53.600;10.040;2022-11-20T13:07:00;2.95;;;2.08;;
74042;SDS011;62384;53.600;10.040;2022-11-20T13:09:28;3.80;;;1.88;;
74042;SDS011;62384;53.600;10.040;2022-11-20T13:14:45;3.53;;;1.70;;
74042;SDS011;62384;53.600;10.040;2022-11-20T13:17:19;3.28;;;1.90;;
74042;SDS011;62384;53.600;10.040;2022-11-20T13:19:53;3.30;;;2.00;;
74042;SDS011;62384;53.600;10.040;2022-11-20T13:22:27;2.05;;;1.42;;
74042;SDS011;62384;53.600;10.040;2022-11-20T13:24:54;3.95;;;1.83;;
74042;SDS011;62384;53.600;10.040;2022-11-20T13:27:20;2.97;;;1.33;;
74042;SDS011;62384;53.600;10.040;2022-11-20T13:32:48;2.95;;;1.60;;
74042;SDS011;62384;53.600;10.040;2022-11-20T13:35:42;5.13;;;2.17;;
74042;SDS011;62384;53.600;10.040;2022-11-20T13:38:12;2.83;;;1.80;;
74042;SDS011;62384;53.600;10.040;2022-11-20T13:41:00;2.53;;;1.83;;
74042;SDS011;62384;53.600;10.040;2022-11-20T13:43:49;3.33;;;1.67;;
74042;SDS011;62384;53.600;10.040;2022-11-20T13:46:14;2.75;;;1.55;;
74042;SDS011;62384;53.600;10.040;2022-11-20T13:48:41;2.75;;;1.90;;
74042;SDS011;62384;53.600;10.040;2022-11-20T13:51:27;2.78;;;1.70;;
74042;SDS011;62384;53.600;10.040;2022-11-20T14:02:26;2.22;;;1.58;;
74042;SDS011;62384;53.600;10.040;2022-11-20T14:04:59;3.38;;;1.67;;
74042;SDS011;62384;53.600;10.040;2022-11-20T14:07:32;2.80;;;1.60;;
74042;SDS011;62384;53.600;10.040;2022-11-20T14:10:04;3.63;;;2.10;;
74042;SDS011;62384;53.600;10.040;2022-11-20T14:12:47;3.72;;;1.85;;
74042;SDS011;62384;53.600;10.040;2022-11-20T14:15:35;2.70;;;1.65;;
74042;SDS011;62384;53.600;10.040;2022-11-20T14:18:10;3.45;;;1.55;;
74042;SDS011;62384;53.600;10.040;2022-11-20T14:20:37;4.78;;;1.70;;
74042;SDS011;62384;53.600;10.040;2022-11-20T14:23:03;3.20;;;2.00;;
74042;SDS011;62384;53.600;10.040;2022-11-20T14:25:30;5.18;;;2.13;;
74042;SDS011;62384;53.600;10.040;2022-11-20T14:27:59;3.05;;;2.03;;
74042;SDS011;62384;53.600;10.040;2022-11-20T14:30:42;3.08;;;1.70;;
74042;SDS011;62384;53.600;10.040;2022-11-20T14:33:10;3.20;;;1.95;;
74042;SDS011;62384;53.600;10.040;2022-11-20T14:35:46;3.15;;;2.08;;
74042;SDS011;62384;53.600;10.040;2022-11-20T14:38:27;2.95;;;1.95;;
74042;SDS011;62384;53.600;10.040;2022-11-20T14:41:20;3.30;;;2.00;;
74042;SDS011;62384;53.600;10.040;2022-11-20T14:43:47;3.15;;;1.88;;
74042;SDS011;62384;53.600;10.040;2022-11-20T14:46:24;4.18;;;2.40;;
74042;SDS011;62384;53.600;10.040;2022-11-20T14:48:51;4.30;;;2.30;;
74042;SDS011;62384;53.600;10.040;2022-11-20T14:53:53;2.70;;;1.88;;
74042;SDS011;62384;53.600;10.040;2022-11-20T14:56:22;4.38;;;2.30;;
74042;SDS011;62384;53.600;10.040;2022-11-20T14:58:55;4.70;;;2.20;;
74042;SDS011;62384;53.600;10.040;2022-11-20T15:01:28;3.63;;;2.20;;
74042;SDS011;62384;53.600;10.040;2022-11-20T15:04:04;2.55;;;1.75;;
74042;SDS011;62384;53.600;10.040;2022-11-20T15:06:35;4.07;;;2.03;;
74042;SDS011;62384;53.600;10.040;2022-11-20T15:09:02;4.50;;;2.10;;
74042;SDS011;62384;53.600;10.040;2022-11-20T15:11:33;4.38;;;2.13;;
74042;SDS011;62384;53.600;10.040;2022-11-20T15:14:04;4.75;;;2.10;;
74042;SDS011;62384;53.600;10.040;2022-11-20T15:16:32;3.42;;;2.28;;
74042;SDS011;62384;53.600;10.040;2022-11-20T15:19:03;5.03;;;2.10;;
74042;SDS011;62384;53.600;10.040;2022-11-20T15:21:40;3.53;;;2.38;;
74042;SDS011;62384;53.600;10.040;2022-11-20T15:24:08;6.97;;;2.30;;
74042;SDS011;62384;53.600;10.040;2022-11-20T15:26:34;4.15;;;2.17;;
74042;SDS011;62384;53.600;10.040;2022-11-20T15:28:59;4.88;;;2.50;;
74042;SDS011;62384;53.600;10.040;2022-11-20T15:31:25;3.55;;;1.98;;
74042;SDS011;62384;53.600;10.040;2022-11-20T15:33:50;4.05;;;2.22;;
74042;SDS011;62384;53.600;10.040;2022-11-20T15:36:16;4.03;;;2.30;;
74042;SDS011;62384;53.600;10.040;2022-11-20T15:38:44;2.83;;;2.10;;
74042;SDS011;62384;53.600;10.040;2022-11-20T15:41:10;5.55;;;2.72;;
74042;SDS011;62384;53.600;10.040;2022-11-20T15:43:35;2.80;;;1.98;;
74042;SDS011;62384;53.600;10.040;2022-11-20T15:46:05;4.15;;;2.17;;
74042;SDS011;62384;53.600;10.040;2022-11-20T15:48:41;3.22;;;1.77;;
74042;SDS011;62384;53.600;10.040;2022-11-20T15:53:40;3.03;;;2.15;;
74042;SDS011;62384;53.600;10.040;2022-11-20T15:56:12;2.88;;;2.00;;
74042;SDS011;62384;53.600;10.040;2022-11-20T15:58:39;3.95;;;2.17;;
74042;SDS011;62384;53.600;10.040;2022-11-20T16:01:04;3.72;;;2.10;;
74042;SDS011;62384;53.600;10.040;2022-11-20T16:03:30;4.10;;;2.00;;
74042;SDS011;62384;53.600;10.040;2022-11-20T16:05:56;5.03;;;2.42;;
74042;SDS011;62384;53.600;10.040;2022-11-20T16:08:22;3.75;;;2.00;;
74042;SDS011;62384;53.600;10.040;2022-11-20T16:10:47;7.07;;;2.20;;
74042;SDS011;62384;53.600;10.040;2022-11-20T16:13:13;3.80;;;2.10;;
74042;SDS011;62384;53.600;10.040;2022-11-20T16:16:03;3.92;;;2.20;;
74042;SDS011;62384;53.600;10.040;2022-11-20T16:18:38;4.50;;;2.17;;
74042;SDS011;62384;53.600;10.040;2022-11-20T16:21:03;3.00;;;2.08;;
74042;SDS011;62384;53.600;10.040;2022-11-20T16:23:30;6.70;;;2.15;;
74042;SDS011;62384;53.600;10.040;2022-11-20T16:25:55;2.90;;;1.83;;
74042;SDS011;62384;53.600;10.040;2022-11-20T16:28:21;3.38;;;2.15;;
74042;SDS011;62384;53.600;10.040;2022-11-20T16:30:46;4.28;;;1.75;;
74042;SDS011;62384;53.600;10.040;2022-11-20T16:33:12;3.60;;;2.03;;
74042;SDS011;62384;53.600;10.040;2022-11-20T16:35:39;2.92;;;2.10;;
74042;SDS011;62384;53.600;10.040;2022-11-20T16:38:05;3.95;;;2.53;;
74042;SDS011;62384;53.600;10.040;2022-11-20T16:40:31;5.00;;;1.90;;